createdAt,value
2023-04-20T00:02:23.576Z,99952.53
2023-04-20T00:04:53.522Z,99933.31
2023-04-20T00:07:25.112Z,99936.16
2023-04-20T00:09:53.309Z,99940.03
2023-04-20T00:12:21.578Z,99931.69
2023-04-20T00:14:49.756Z,99919.81
2023-04-20T00:17:17.878Z,99924.09
2023-04-20T00:19:46.794Z,99916.59
2023-04-20T00:22:15.036Z,99918.16
2023-04-20T00:24:43.773Z,99915.91
2023-04-20T00:27:12.552Z,99920.00
2023-04-20T00:29:40.688Z,99919.75
2023-04-20T00:32:08.959Z,99918.75
2023-04-20T00:34:37.564Z,99921.31
2023-04-20T00:37:06.843Z,99923.72
2023-04-20T00:39:35.606Z,99925.44
2023-04-20T00:42:08.381Z,99918.09
2023-04-20T00:44:36.791Z,99912.44
2023-04-20T00:47:04.924Z,99929.16
2023-04-20T00:49:33.497Z,99920.13
2023-04-20T00:52:01.750Z,99913.88
2023-04-20T00:54:31.289Z,99901.28
2023-04-20T00:57:00.426Z,99905.53
2023-04-20T00:59:28.612Z,99911.34
2023-04-20T01:01:58.444Z,99910.25
2023-04-20T01:04:27.772Z,99898.63
2023-04-20T01:06:55.853Z,99906.44
2023-04-20T01:09:25.962Z,99910.84
2023-04-20T01:11:54.304Z,99903.34
2023-04-20T01:14:22.693Z,99896.97
2023-04-20T01:16:52.451Z,99902.34
2023-04-20T01:19:21.972Z,99885.19
2023-04-20T01:21:50.093Z,99874.28
2023-04-20T01:24:18.245Z,99867.63
2023-04-20T01:26:46.323Z,99855.19
2023-04-20T01:29:14.808Z,99843.41
2023-04-20T01:31:43.162Z,99841.31
2023-04-20T01:34:11.499Z,99843.72
2023-04-20T01:36:39.708Z,99836.38
2023-04-20T01:39:10.317Z,99842.47
2023-04-20T01:41:39.468Z,99852.25
2023-04-20T01:44:07.762Z,99848.44
2023-04-20T01:46:40.201Z,99847.28
2023-04-20T01:49:09.191Z,99845.31
2023-04-20T01:51:37.675Z,99837.41
2023-04-20T01:54:05.851Z,99837.66
2023-04-20T01:56:34.713Z,99844.59
2023-04-20T01:59:03.554Z,99829.31
2023-04-20T02:01:31.606Z,99844.19
2023-04-20T02:04:00.084Z,99843.06
2023-04-20T02:06:28.394Z,99847.31
2023-04-20T02:08:56.696Z,99842.06
2023-04-20T02:11:25.170Z,99846.16
2023-04-20T02:13:53.492Z,99870.56
2023-04-20T02:16:23.980Z,99867.84
2023-04-20T02:18:52.282Z,99863.91
2023-04-20T02:21:20.332Z,99853.97
2023-04-20T02:23:48.558Z,99832.44
2023-04-20T02:26:17.353Z,99826.19
2023-04-20T02:28:45.358Z,99821.50
2023-04-20T02:31:13.942Z,99808.47
2023-04-20T02:33:42.310Z,99825.34
2023-04-20T02:36:10.507Z,99808.88
2023-04-20T02:38:38.691Z,99793.72
2023-04-20T02:41:07.599Z,99787.22
2023-04-20T02:43:36.594Z,99799.53
2023-04-20T02:46:04.596Z,99798.28
2023-04-20T02:48:33.196Z,99795.31
2023-04-20T02:51:01.553Z,99790.78
2023-04-20T02:53:30.285Z,99799.84
2023-04-20T02:55:58.500Z,99813.44
2023-04-20T02:58:26.864Z,99817.41
2023-04-20T03:01:01.156Z,99813.59
2023-04-20T03:03:30.011Z,99813.44
2023-04-20T03:06:00.930Z,99817.69
2023-04-20T03:08:31.294Z,99814.00
2023-04-20T03:10:59.442Z,99819.97
2023-04-20T03:13:28.109Z,99818.97
2023-04-20T03:15:56.607Z,99806.38
2023-04-20T03:18:24.979Z,99813.00
2023-04-20T03:21:15.815Z,99800.38
2023-04-20T03:23:43.937Z,99806.63
2023-04-20T03:26:13.297Z,99797.84
2023-04-20T03:28:42.686Z,99791.47
2023-04-20T03:31:10.573Z,99801.13
2023-04-20T03:33:43.712Z,99803.09
2023-04-20T03:36:12.186Z,99805.22
2023-04-20T03:38:40.525Z,99805.22
2023-04-20T03:41:09.070Z,99801.22
2023-04-20T03:43:37.723Z,99798.53
2023-04-20T03:46:06.020Z,99806.25
2023-04-20T03:48:34.866Z,99809.81
2023-04-20T03:51:03.218Z,99812.19
2023-04-20T03:53:31.638Z,99816.63
2023-04-20T03:55:59.979Z,99812.19
2023-04-20T03:58:28.492Z,99804.25
2023-04-20T04:01:10.100Z,99811.50
2023-04-20T04:03:38.568Z,99812.63
2023-04-20T04:06:08.068Z,99816.28
2023-04-20T04:08:38.689Z,99815.44
2023-04-20T04:11:06.802Z,99809.19
2023-04-20T04:13:38.416Z,99808.97
2023-04-20T04:16:07.358Z,99817.41
2023-04-20T04:18:36.016Z,99821.81
2023-04-20T04:21:04.375Z,99817.53
2023-04-20T04:23:35.486Z,99816.69
2023-04-20T04:26:05.356Z,99822.25
2023-04-20T04:28:34.713Z,99814.59
2023-04-20T04:31:06.957Z,99811.59
2023-04-20T04:33:36.014Z,99818.41
2023-04-20T04:36:05.733Z,99812.31
2023-04-20T04:38:34.812Z,99810.63
2023-04-20T04:41:05.156Z,99814.84
2023-04-20T04:43:34.001Z,99805.78
2023-04-20T04:46:18.715Z,99809.94
2023-04-20T04:48:48.881Z,99809.94
2023-04-20T04:51:16.958Z,99811.88
2023-04-20T04:53:47.188Z,99809.19
2023-04-20T04:56:16.092Z,99804.66
2023-04-20T04:58:48.883Z,99806.63
2023-04-20T05:01:17.629Z,99805.34
2023-04-20T05:03:46.126Z,99809.75
2023-04-20T05:06:14.493Z,99812.44
2023-04-20T05:08:42.556Z,99820.06
2023-04-20T05:11:11.244Z,99818.38
2023-04-20T05:13:40.087Z,99817.13
2023-04-20T05:16:08.325Z,99818.66
2023-04-20T05:18:36.599Z,99825.19
2023-04-20T05:21:07.572Z,99818.81
2023-04-20T05:23:37.350Z,99817.13
2023-04-20T05:26:06.959Z,99814.69
2023-04-20T05:28:35.405Z,99812.00
2023-04-20T05:31:03.355Z,99818.22
2023-04-20T05:33:31.678Z,99817.53
2023-04-20T05:35:59.803Z,99812.00
2023-04-20T05:38:28.149Z,99821.63
2023-04-20T05:40:59.013Z,99818.09
2023-04-20T05:43:27.206Z,99818.09
2023-04-20T05:45:55.250Z,99830.13
2023-04-20T05:48:23.279Z,99830.00
2023-04-20T05:50:51.188Z,99838.06
2023-04-20T05:53:22.272Z,99828.41
2023-04-20T05:55:51.301Z,99836.50
2023-04-20T05:58:21.025Z,99831.25
2023-04-20T06:00:49.160Z,99827.44
2023-04-20T06:03:17.591Z,99829.41
2023-04-20T06:05:49.172Z,99833.81
2023-04-20T06:08:19.645Z,99831.38
2023-04-20T06:10:47.779Z,99833.78
2023-04-20T06:13:16.139Z,99838.31
2023-04-20T06:15:45.152Z,99852.38
2023-04-20T06:18:13.750Z,99835.63
2023-04-20T06:20:44.113Z,99830.38
2023-04-20T06:23:12.268Z,99831.78
2023-04-20T06:25:40.719Z,99836.06
2023-04-20T06:28:13.284Z,99837.19
2023-04-20T06:30:41.684Z,99837.06
2023-04-20T06:33:12.228Z,99838.75
2023-04-20T06:35:40.848Z,99830.25
2023-04-20T06:38:09.193Z,99825.72
2023-04-20T06:40:37.421Z,99833.38
2023-04-20T06:43:05.537Z,99827.25
2023-04-20T06:45:34.617Z,99842.31
2023-04-20T06:48:02.887Z,99840.34
2023-04-20T06:50:31.514Z,99826.00
2023-04-20T06:52:59.626Z,99831.13
2023-04-20T06:55:27.813Z,99832.28
2023-04-20T06:57:55.837Z,99827.16
2023-04-20T07:00:24.212Z,99827.03
2023-04-20T07:02:55.717Z,99833.56
2023-04-20T07:05:29.044Z,99839.91
2023-04-20T07:07:57.138Z,99834.53
2023-04-20T07:10:25.634Z,99829.00
2023-04-20T07:12:54.708Z,99824.47
2023-04-20T07:15:23.651Z,99813.69
2023-04-20T07:17:51.718Z,99817.81
2023-04-20T07:20:20.060Z,99812.16
2023-04-20T07:22:48.784Z,99808.31
2023-04-20T07:25:18.159Z,99812.84
2023-04-20T07:27:50.956Z,99790.63
2023-04-20T07:30:19.474Z,99792.06
2023-04-20T07:32:47.742Z,99786.84
2023-04-20T07:35:17.056Z,99781.69
2023-04-20T07:37:46.289Z,99770.00
2023-04-20T07:40:17.765Z,99780.72
2023-04-20T07:42:47.189Z,99794.81
2023-04-20T07:45:15.447Z,99809.53
2023-04-20T07:47:45.283Z,99800.16
2023-04-20T07:50:13.569Z,99812.91
2023-04-20T07:52:43.118Z,99805.69
2023-04-20T07:55:16.121Z,99796.59
2023-04-20T07:57:45.610Z,99812.06
2023-04-20T08:00:14.613Z,99808.47
2023-04-20T08:02:44.631Z,99808.06
2023-04-20T08:05:13.443Z,99804.50
2023-04-20T08:07:41.990Z,99800.44
2023-04-20T08:10:13.180Z,99796.97
2023-04-20T08:12:45.003Z,99805.50
2023-04-20T08:15:14.873Z,99801.84
2023-04-20T08:17:44.087Z,99804.31
2023-04-20T08:20:14.196Z,99814.97
2023-04-20T08:22:42.551Z,99809.59
2023-04-20T08:25:10.686Z,99809.16
2023-04-20T08:27:39.540Z,99809.16
2023-04-20T08:30:08.203Z,99825.16
2023-04-20T08:32:39.872Z,99817.09
2023-04-20T08:35:09.208Z,99818.38
2023-04-20T08:37:38.909Z,99822.22
2023-04-20T08:40:07.843Z,99819.25
2023-04-20T08:42:38.802Z,99830.63
2023-04-20T08:45:07.795Z,99815.84
2023-04-20T08:47:37.741Z,99828.47
2023-04-20T08:50:07.039Z,99831.75
2023-04-20T08:52:36.070Z,99829.06
2023-04-20T08:55:04.612Z,99839.56
2023-04-20T08:57:34.183Z,99834.72
2023-04-20T09:00:06.135Z,99833.44
2023-04-20T09:02:35.201Z,99840.25
2023-04-20T09:05:05.406Z,99841.66
2023-04-20T09:07:34.121Z,99843.13
2023-04-20T09:10:04.196Z,99840.84
2023-04-20T09:12:42.125Z,99851.66
2023-04-20T09:15:11.211Z,99865.25
2023-04-20T09:17:41.642Z,99855.03
2023-04-20T09:20:11.635Z,99851.22
2023-04-20T09:22:41.731Z,99851.50
2023-04-20T09:25:16.938Z,99870.53
2023-04-20T09:27:59.321Z,99850.50
2023-04-20T09:30:39.760Z,99862.13
2023-04-20T09:33:08.873Z,99860.28
2023-04-20T09:35:38.466Z,99861.97
2023-04-20T09:38:08.105Z,99858.75
2023-04-20T09:40:37.219Z,99844.41
2023-04-20T09:43:19.558Z,99845.53
2023-04-20T09:45:49.434Z,99846.81
2023-04-20T09:48:23.053Z,99831.63
2023-04-20T09:50:53.340Z,99834.75
2023-04-20T09:53:23.225Z,99824.81
2023-04-20T09:55:54.365Z,99824.38
2023-04-20T09:58:25.613Z,99828.47
2023-04-20T10:00:53.791Z,99817.53
2023-04-20T10:03:22.336Z,99829.47
2023-04-20T10:05:52.975Z,99826.19
2023-04-20T10:08:21.781Z,99819.34
2023-04-20T10:10:51.770Z,99826.69
2023-04-20T10:13:22.225Z,99827.38
2023-04-20T10:15:50.667Z,99827.47
2023-04-20T10:18:21.345Z,99826.47
2023-04-20T10:20:50.447Z,99827.19
2023-04-20T10:23:20.333Z,99834.22
2023-04-20T10:25:59.309Z,99828.38
2023-04-20T10:28:42.546Z,99826.28
2023-04-20T10:31:14.056Z,99833.84
2023-04-20T10:34:02.559Z,99831.97
2023-04-20T10:36:33.243Z,99833.78
2023-04-20T10:39:03.039Z,99838.56
2023-04-20T10:41:31.588Z,99840.91
2023-04-20T10:44:10.481Z,99841.81
2023-04-20T10:46:38.799Z,99836.28
2023-04-20T10:49:06.947Z,99850.88
2023-04-20T10:51:35.293Z,99849.66
2023-04-20T10:54:08.660Z,99857.22
2023-04-20T10:56:45.596Z,99853.28
2023-04-20T10:59:16.011Z,99861.28
2023-04-20T11:01:47.260Z,99864.00
2023-04-20T11:04:18.581Z,99869.53
2023-04-20T11:06:50.845Z,99863.19
2023-04-20T11:09:25.068Z,99871.31
2023-04-20T11:12:04.867Z,99862.09
2023-04-20T11:14:41.489Z,99855.41
2023-04-20T11:17:09.689Z,99863.00
2023-04-20T11:19:38.106Z,99859.13
2023-04-20T11:22:07.042Z,99864.63
2023-04-20T11:24:37.735Z,99858.03
2023-04-20T11:27:05.798Z,99853.19
2023-04-20T11:29:40.844Z,99858.88
2023-04-20T11:32:10.688Z,99867.63
2023-04-20T11:34:40.035Z,99867.06
2023-04-20T11:37:13.438Z,99859.47
2023-04-20T11:39:42.130Z,99867.16
2023-04-20T11:42:10.600Z,99859.34
2023-04-20T11:44:41.552Z,99854.06
2023-04-20T11:47:09.728Z,99843.59
2023-04-20T11:49:40.629Z,99840.00
2023-04-20T11:52:08.938Z,99843.50
2023-04-20T11:54:37.283Z,99839.13
2023-04-20T11:57:08.230Z,99833.78
2023-04-20T11:59:37.314Z,99839.78
2023-04-20T12:02:08.919Z,99832.44
2023-04-20T12:04:37.512Z,99832.44
2023-04-20T12:07:08.775Z,99831.34
2023-04-20T12:09:38.626Z,99824.41
2023-04-20T12:12:12.793Z,99822.38
2023-04-20T12:14:43.834Z,99836.03
2023-04-20T12:17:14.855Z,99816.88
2023-04-20T12:19:42.990Z,99812.50
2023-04-20T12:22:10.918Z,99813.34
2023-04-20T12:24:39.470Z,99805.69
2023-04-20T12:27:07.662Z,99806.53
2023-04-20T12:29:35.999Z,99796.75
2023-04-20T12:32:07.179Z,99800.84
2023-04-20T12:34:35.346Z,99795.47
2023-04-20T12:37:03.658Z,99801.69
2023-04-20T12:39:32.168Z,99801.44
2023-04-20T12:42:00.716Z,99789.63
2023-04-20T12:44:29.121Z,99792.44
2023-04-20T12:46:57.401Z,99790.41
2023-04-20T12:49:25.731Z,99795.69
2023-04-20T12:51:53.773Z,99791.69
2023-04-20T12:54:21.965Z,99800.28
2023-04-20T12:56:52.800Z,99782.81
2023-04-20T12:59:21.377Z,99786.19
2023-04-20T13:01:49.465Z,99785.09
2023-04-20T13:04:18.126Z,99782.22
2023-04-20T13:06:47.130Z,99783.69
2023-04-20T13:09:16.187Z,99794.06
2023-04-20T13:11:44.286Z,99787.50
2023-04-20T13:14:12.254Z,99790.47
2023-04-20T13:16:45.331Z,99783.81
2023-04-20T13:19:13.636Z,99787.50
2023-04-20T13:21:41.654Z,99785.97
2023-04-20T13:24:09.921Z,99787.50
2023-04-20T13:26:38.227Z,99786.66
2023-04-20T13:29:06.729Z,99786.53
2023-04-20T13:31:34.994Z,99784.59
2023-04-20T13:34:03.403Z,99781.19
2023-04-20T13:36:33.801Z,99783.28
2023-04-20T13:39:04.196Z,99781.31
2023-04-20T13:41:32.656Z,99779.91
2023-04-20T13:44:01.253Z,99786.88
2023-04-20T13:46:29.843Z,99777.66
2023-04-20T13:48:58.460Z,99785.59
2023-04-20T13:51:29.613Z,99781.75
2023-04-20T13:53:57.894Z,99778.50
2023-04-20T13:56:26.093Z,99766.88
2023-04-20T13:58:54.367Z,99772.81
2023-04-20T14:01:23.112Z,99762.59
2023-04-20T14:03:53.051Z,99774.13
2023-04-20T14:06:21.218Z,99775.41
2023-04-20T14:08:50.966Z,99780.91
2023-04-20T14:11:19.091Z,99768.66
2023-04-20T14:13:47.082Z,99772.88
2023-04-20T14:16:15.721Z,99769.44
2023-04-20T14:18:43.929Z,99775.44
2023-04-20T14:21:11.974Z,99782.97
2023-04-20T14:23:40.790Z,99774.28
2023-04-20T14:26:09.308Z,99780.38
2023-04-20T14:28:40.985Z,99777.38
2023-04-20T14:31:09.128Z,99777.38
2023-04-20T14:33:38.664Z,99776.66
2023-04-20T14:36:10.176Z,99770.44
2023-04-20T14:38:40.962Z,99768.56
2023-04-20T14:41:09.029Z,99773.72
2023-04-20T14:43:37.647Z,99766.34
2023-04-20T14:46:11.514Z,99776.44
2023-04-20T14:48:39.854Z,99781.13
2023-04-20T14:51:08.348Z,99781.84
2023-04-20T14:53:36.477Z,99785.47
2023-04-20T14:56:08.393Z,99787.78
2023-04-20T14:58:37.826Z,99783.38
2023-04-20T15:01:05.995Z,99786.81
2023-04-20T15:03:34.288Z,99785.97
2023-04-20T15:06:02.971Z,99795.78
2023-04-20T15:08:31.299Z,99794.81
2023-04-20T15:10:59.477Z,99794.72
2023-04-20T15:13:27.625Z,99798.88
2023-04-20T15:15:56.211Z,99800.47
2023-04-20T15:18:24.745Z,99803.22
2023-04-20T15:20:53.133Z,99804.94
2023-04-20T15:23:21.478Z,99814.88
2023-04-20T15:25:49.991Z,99813.78
2023-04-20T15:28:18.158Z,99815.31
2023-04-20T15:30:47.202Z,99817.19
2023-04-20T15:33:15.716Z,99817.72
2023-04-20T15:35:43.989Z,99813.47
2023-04-20T15:38:12.237Z,99811.78
2023-04-20T15:40:40.643Z,99813.75
2023-04-20T15:43:09.273Z,99818.88
2023-04-20T15:45:37.467Z,99825.81
2023-04-20T15:48:06.647Z,99823.44
2023-04-20T15:50:35.973Z,99814.63
2023-04-20T15:53:04.307Z,99812.19
2023-04-20T15:55:36.025Z,99814.75
2023-04-20T15:58:04.840Z,99818.59
2023-04-20T16:00:33.404Z,99813.50
2023-04-20T16:03:02.963Z,99818.88
2023-04-20T16:05:33.561Z,99811.22
2023-04-20T16:08:01.822Z,99813.06
2023-04-20T16:10:30.409Z,99814.91
2023-04-20T16:13:01.062Z,99805.00
2023-04-20T16:15:33.370Z,99811.06
2023-04-20T16:18:06.132Z,99809.38
2023-04-20T16:20:34.746Z,99803.84
2023-04-20T16:23:02.877Z,99805.97
2023-04-20T16:25:34.785Z,99798.44
2023-04-20T16:28:03.715Z,99806.38
2023-04-20T16:30:33.447Z,99806.53
2023-04-20T16:33:02.675Z,99811.06
2023-04-20T16:35:31.829Z,99810.91
2023-04-20T16:37:59.970Z,99816.88
2023-04-20T16:40:28.996Z,99819.72
2023-04-20T16:42:57.994Z,99816.03
2023-04-20T16:45:26.699Z,99819.72
2023-04-20T16:48:00.961Z,99799.72
2023-04-20T16:50:29.636Z,99809.94
2023-04-20T16:52:57.689Z,99810.38
2023-04-20T16:55:26.509Z,99812.31
2023-04-20T16:58:00.454Z,99812.00
2023-04-20T17:00:31.604Z,99819.66
2023-04-20T17:03:01.756Z,99808.31
2023-04-20T17:05:30.682Z,99819.22
2023-04-20T17:07:59.403Z,99830.94
2023-04-20T17:10:27.438Z,99818.22
2023-04-20T17:12:55.590Z,99822.44
2023-04-20T17:15:23.905Z,99829.09
2023-04-20T17:17:52.398Z,99830.94
2023-04-20T17:20:28.155Z,99832.81
2023-04-20T17:22:56.393Z,99841.75
2023-04-20T17:25:27.001Z,99847.84
2023-04-20T17:27:55.264Z,99843.59
2023-04-20T17:30:23.650Z,99844.31
2023-04-20T17:32:54.127Z,99837.50
2023-04-20T17:35:23.724Z,99834.66
2023-04-20T17:37:54.216Z,99841.31
2023-04-20T17:40:22.959Z,99847.94
2023-04-20T17:42:51.401Z,99850.88
2023-04-20T17:45:19.788Z,99849.47
2023-04-20T17:47:48.170Z,99845.78
2023-04-20T17:50:17.056Z,99837.56
2023-04-20T17:52:45.431Z,99846.31
2023-04-20T17:55:13.712Z,99855.22
2023-04-20T17:57:41.813Z,99849.25
2023-04-20T18:00:13.260Z,99842.28
2023-04-20T18:02:41.647Z,99841.31
2023-04-20T18:05:12.965Z,99844.97
2023-04-20T18:07:41.323Z,99843.28
2023-04-20T18:10:16.090Z,99838.28
2023-04-20T18:12:45.409Z,99835.03
2023-04-20T18:15:14.136Z,99841.66
2023-04-20T18:17:45.542Z,99845.53
2023-04-20T18:20:14.300Z,99843.50
2023-04-20T18:22:45.697Z,99849.84
2023-04-20T18:25:14.644Z,99845.41
2023-04-20T18:27:49.008Z,99842.69
2023-04-20T18:30:18.856Z,99842.75
2023-04-20T18:32:50.958Z,99847.28
2023-04-20T18:35:21.716Z,99842.50
2023-04-20T18:37:49.757Z,99833.19
2023-04-20T18:40:17.753Z,99835.63
2023-04-20T18:42:45.988Z,99835.47
2023-04-20T18:45:17.169Z,99844.38
2023-04-20T18:47:45.432Z,99828.84
2023-04-20T18:50:13.851Z,99824.66
2023-04-20T18:52:42.570Z,99835.34
2023-04-20T18:55:11.159Z,99819.78
2023-04-20T18:57:39.658Z,99829.00
2023-04-20T19:00:10.853Z,99832.13
2023-04-20T19:02:39.445Z,99827.75
2023-04-20T19:05:08.160Z,99834.28
2023-04-20T19:07:36.539Z,99822.34
2023-04-20T19:10:05.530Z,99816.97
2023-04-20T19:12:38.654Z,99822.47
2023-04-20T19:15:07.232Z,99822.88
2023-04-20T19:17:36.563Z,99821.19
2023-04-20T19:20:07.740Z,99815.34
2023-04-20T19:22:36.272Z,99817.31
2023-04-20T19:25:05.307Z,99812.81
2023-04-20T19:27:33.806Z,99811.69
2023-04-20T19:30:02.081Z,99814.38
2023-04-20T19:32:31.615Z,99813.91
2023-04-20T19:35:01.078Z,99811.09
2023-04-20T19:37:32.888Z,99809.38
2023-04-20T19:40:01.184Z,99809.97
2023-04-20T19:42:29.490Z,99807.94
2023-04-20T19:44:59.243Z,99818.44
2023-04-20T19:47:28.209Z,99812.06
2023-04-20T19:49:57.260Z,99817.53
2023-04-20T19:52:25.482Z,99816.28
2023-04-20T19:54:53.873Z,99812.75
2023-04-20T19:57:22.557Z,99816.47
2023-04-20T19:59:51.068Z,99812.63
2023-04-20T20:02:19.345Z,99814.50
2023-04-20T20:04:48.737Z,99813.06
2023-04-20T20:07:18.448Z,99824.41
2023-04-20T20:09:47.044Z,99824.28
2023-04-20T20:12:15.483Z,99819.16
2023-04-20T20:14:44.677Z,99816.19
2023-04-20T20:17:14.810Z,99820.88
2023-04-20T20:19:45.608Z,99817.78
2023-04-20T20:22:13.916Z,99819.63
2023-04-20T20:24:44.950Z,99816.94
2023-04-20T20:27:16.011Z,99808.41
2023-04-20T20:29:44.299Z,99818.31
2023-04-20T20:32:13.105Z,99811.09
2023-04-20T20:34:41.747Z,99807.69
2023-04-20T20:37:13.213Z,99799.63
2023-04-20T20:39:41.541Z,99806.25
2023-04-20T20:42:12.921Z,99803.16
2023-04-20T20:44:44.453Z,99803.75
2023-04-20T20:47:12.853Z,99802.31
2023-04-20T20:49:41.415Z,99795.69
2023-04-20T20:52:10.102Z,99802.63
2023-04-20T20:54:39.749Z,99795.25
2023-04-20T20:57:08.954Z,99790.72
2023-04-20T20:59:37.244Z,99797.53
2023-04-20T21:02:05.687Z,99791.97
2023-04-20T21:04:34.577Z,99792.22
2023-04-20T21:07:04.316Z,99783.25
2023-04-20T21:09:35.979Z,99787.25
2023-04-20T21:12:07.848Z,99781.53
2023-04-20T21:14:37.698Z,99772.50
2023-04-20T21:17:06.098Z,99770.69
2023-04-20T21:19:36.008Z,99776.31
2023-04-20T21:22:09.385Z,99779.53
2023-04-20T21:24:38.071Z,99771.47
2023-04-20T21:27:06.307Z,99769.09
2023-04-20T21:29:34.727Z,99773.03
2023-04-20T21:32:03.212Z,99772.03
2023-04-20T21:34:31.838Z,99768.25
2023-04-20T21:37:09.666Z,99771.63
2023-04-20T21:39:38.060Z,99764.56
2023-04-20T21:42:06.424Z,99759.19
2023-04-20T21:44:35.204Z,99755.66
2023-04-20T21:47:04.104Z,99751.41
2023-04-20T21:49:34.013Z,99753.09
2023-04-20T21:52:02.798Z,99741.38
2023-04-20T21:54:32.601Z,99737.25
2023-04-20T21:57:02.204Z,99744.19
2023-04-20T21:59:30.241Z,99735.00
2023-04-20T22:01:58.808Z,99735.66
2023-04-20T22:04:27.424Z,99737.38
2023-04-20T22:06:55.940Z,99728.47
2023-04-20T22:09:24.702Z,99735.16
2023-04-20T22:11:54.077Z,99733.13
2023-04-20T22:14:22.794Z,99738.31
2023-04-20T22:16:52.588Z,99734.22
2023-04-20T22:19:23.948Z,99734.81
2023-04-20T22:21:52.002Z,99731.03
2023-04-20T22:24:20.600Z,99727.59
2023-04-20T22:26:48.937Z,99732.84
2023-04-20T22:29:18.329Z,99726.50
2023-04-20T22:31:47.057Z,99725.06
2023-04-20T22:34:16.322Z,99725.06
2023-04-20T22:36:44.518Z,99726.03
2023-04-20T22:39:12.795Z,99715.88
2023-04-20T22:41:41.750Z,99721.84
2023-04-20T22:44:10.296Z,99707.94
2023-04-20T22:46:38.288Z,99713.66
2023-04-20T22:49:07.073Z,99708.97
2023-04-20T22:51:35.872Z,99709.13
2023-04-20T22:54:04.746Z,99701.31
2023-04-20T22:56:33.877Z,99701.47
2023-04-20T22:59:02.290Z,99703.03
2023-04-20T23:01:33.602Z,99699.88
2023-04-20T23:04:04.408Z,99700.16
2023-04-20T23:06:35.286Z,99704.09
2023-04-20T23:09:07.474Z,99694.66
2023-04-20T23:11:39.014Z,99702.31
2023-04-20T23:14:08.099Z,99695.34
2023-04-20T23:16:36.550Z,99701.91
2023-04-20T23:19:04.900Z,99702.03
2023-04-20T23:21:33.206Z,99696.22
2023-04-20T23:24:05.742Z,99697.94
2023-04-20T23:26:33.849Z,99689.72
2023-04-20T23:29:02.272Z,99689.13
2023-04-20T23:31:31.018Z,99690.72
2023-04-20T23:33:59.563Z,99699.38
2023-04-20T23:36:27.559Z,99696.38
2023-04-20T23:38:55.982Z,99691.16
2023-04-20T23:41:24.240Z,99694.97
2023-04-20T23:43:52.383Z,99687.47
2023-04-20T23:46:20.477Z,99690.75
2023-04-20T23:48:49.963Z,99684.66
2023-04-20T23:51:21.106Z,99673.91
2023-04-20T23:53:49.376Z,99683.69
2023-04-20T23:56:17.508Z,99677.19
2023-04-20T23:58:46.085Z,99674.34
